Time;durP1;ratioP1;P1;durP2;ratioP2;P2;SDS_P1;SDS_P2;PMS_P1;PMS_P2;Temp;Humidity;BMP_temperature;BMP_pressure;BME280_temperature;BME280_humidity;BME280_pressure;Samples;Min_cycle;Max_cycle;Signal;HPM_P1;HPM_P2
2021/08/31 05:37:03;;;;;;;10.28;8.30;;;;;;;18.41;85.26;99531.44;1771366;79;21045;-35
2021/08/31 05:39:33;;;;;;;15.78;9.28;;;;;;;18.44;84.68;99527.78;1770899;79;21005;-32
2021/08/31 05:42:06;;;;;;;10.60;8.38;;;;;;;18.48;84.16;99530.70;1766721;79;21503;-39
2021/08/31 05:44:37;;;;;;;9.98;7.05;;;;;;;18.51;83.50;99527.47;1757950;79;20995;-33
2021/08/31 05:47:04;;;;;;;12.95;7.12;;;;;;;18.59;83.56;99529.77;1768310;79;21571;-39
2021/08/31 05:49:31;;;;;;;10.43;7.58;;;;;;;18.69;82.28;99537.73;1755014;80;21012;-39
2021/08/31 05:52:00;;;;;;;9.20;7.00;;;;;;;18.77;81.10;99540.03;1758572;79;21526;-39
2021/08/31 05:54:27;;;;;;;8.98;7.28;;;;;;;18.84;80.12;99537.05;1768150;79;20986;-39
2021/08/31 05:56:55;;;;;;;10.72;6.65;;;;;;;18.89;78.95;99530.19;1768054;78;21532;-33
2021/08/31 05:59:21;;;;;;;10.63;6.72;;;;;;;18.94;78.47;99532.16;1718028;82;21472;-39
2021/08/31 06:01:49;;;;;;;7.22;6.40;;;;;;;19.00;77.25;99540.30;1689193;82;21048;-39
2021/08/31 06:04:16;;;;;;;8.03;6.95;;;;;;;19.04;76.44;99534.79;1709210;82;21582;-33
2021/08/31 06:06:43;;;;;;;8.25;6.30;;;;;;;19.11;77.24;99541.52;1762921;79;21036;-39
2021/08/31 06:09:10;;;;;;;8.70;6.87;;;;;;;19.17;77.00;99537.72;1755037;79;21653;-39
2021/08/31 06:11:40;;;;;;;9.45;6.60;;;;;;;19.24;74.76;99534.30;1750683;80;21417;-38
2021/08/31 06:14:09;;;;;;;7.50;6.78;;;;;;;19.29;73.75;99541.58;1757073;79;20961;-38
2021/08/31 06:16:36;;;;;;;8.43;6.70;;;;;;;19.35;73.82;99542.14;1757243;79;21064;-39
2021/08/31 06:19:02;;;;;;;9.70;6.97;;;;;;;19.47;73.58;99546.47;1755691;79;21893;-40
2021/08/31 06:21:29;;;;;;;8.95;5.75;;;;;;;19.55;72.02;99541.20;1740899;81;20989;-34
2021/08/31 06:23:56;;;;;;;8.83;5.20;;;;;;;19.62;70.26;99551.08;1724825;81;20978;-33
2021/08/31 06:26:23;;;;;;;6.47;5.37;;;;;;;19.66;70.02;99552.18;1729182;81;21054;-34
2021/08/31 06:28:50;;;;;;;6.70;5.65;;;;;;;19.73;68.46;99550.55;1722753;81;20988;-32
2021/08/31 06:31:17;;;;;;;5.10;4.58;;;;;;;19.80;69.42;99544.86;1702309;82;21579;-34
2021/08/31 06:33:46;;;;;;;7.20;4.80;;;;;;;19.89;67.85;99555.03;1734858;81;21008;-33
2021/08/31 06:36:14;;;;;;;7.75;5.42;;;;;;;19.99;67.50;99564.70;1728729;81;21643;-40
2021/08/31 06:38:41;;;;;;;5.53;3.87;;;;;;;20.09;67.02;99557.14;1706402;82;21031;-34
2021/08/31 06:41:08;;;;;;;6.28;3.95;;;;;;;20.19;64.66;99553.09;1709095;80;21064;-40
2021/08/31 06:43:37;;;;;;;4.22;3.83;;;;;;;20.28;64.13;99557.05;1699586;82;21125;-34
2021/08/31 06:46:04;;;;;;;6.60;4.15;;;;;;;20.34;63.17;99553.61;1713659;80;21024;-40
2021/08/31 06:48:31;;;;;;;6.53;3.80;;;;;;;20.39;64.18;99557.36;1770772;79;21147;-39
2021/08/31 06:50:57;;;;;;;3.50;3.20;;;;;;;20.45;63.03;99557.03;1763638;79;21024;-33
2021/08/31 06:53:25;;;;;;;4.35;3.80;;;;;;;20.49;59.94;99559.97;1761945;79;20989;-33
2021/08/31 06:55:52;;;;;;;4.67;3.77;;;;;;;20.52;60.34;99561.12;1760402;81;21064;-39
2021/08/31 06:58:19;;;;;;;4.67;4.17;;;;;;;20.56;60.02;99564.02;1757278;79;21579;-39
2021/08/31 07:00:45;;;;;;;5.05;4.08;;;;;;;20.64;61.24;99568.47;1764477;79;21016;-34
2021/08/31 07:03:12;;;;;;;4.17;3.83;;;;;;;20.75;61.88;99572.34;1734296;81;21029;-38
2021/08/31 07:05:39;;;;;;;4.80;4.35;;;;;;;20.85;61.49;99569.11;1776004;79;20990;-39
2021/08/31 07:08:07;;;;;;;6.58;4.45;;;;;;;20.95;59.27;99574.80;1742842;80;21596;-39
2021/08/31 07:10:34;;;;;;;9.03;5.05;;;;;;;20.98;58.71;99570.62;1769523;79;21488;-40
2021/08/31 07:13:01;;;;;;;4.15;3.85;;;;;;;21.03;59.32;99587.20;1766848;79;21021;-40
2021/08/31 07:15:27;;;;;;;3.65;3.30;;;;;;;21.09;57.55;99586.01;1760561;79;20988;-40
2021/08/31 07:21:50;;;;;;;7.45;4.05;;;;;;;21.12;57.96;99584.53;1761864;79;21072;-32
2021/08/31 07:24:17;;;;;;;3.80;3.50;;;;;;;21.18;57.70;99593.50;1756458;79;21013;-39
2021/08/31 07:26:44;;;;;;;3.62;3.20;;;;;;;21.24;55.79;99592.69;1723838;81;21064;-38
2021/08/31 07:29:11;;;;;;;3.70;3.10;;;;;;;21.28;55.98;99600.04;1737599;81;21027;-38
2021/08/31 07:31:38;;;;;;;3.50;3.10;;;;;;;21.30;55.95;99597.32;1702618;82;21651;-33
2021/08/31 07:34:05;;;;;;;4.87;3.02;;;;;;;21.32;55.60;99591.44;1717626;82;21009;-39
2021/08/31 07:36:31;;;;;;;4.37;3.45;;;;;;;21.33;55.31;99591.81;1753084;80;21000;-33
2021/08/31 07:38:58;;;;;;;4.05;3.62;;;;;;;21.38;55.90;99595.08;1760680;80;21117;-33
2021/08/31 07:41:27;;;;;;;3.00;2.65;;;;;;;21.40;54.40;99594.55;1760404;79;21655;-33
2021/08/31 07:43:56;;;;;;;6.60;3.72;;;;;;;21.41;54.56;99600.25;1759286;79;21004;-39
2021/08/31 07:46:23;;;;;;;3.45;3.12;;;;;;;21.43;55.30;99597.02;1758034;80;21059;-33
2021/08/31 07:48:50;;;;;;;4.37;3.55;;;;;;;21.50;56.11;99594.39;1730777;81;21008;-34
2021/08/31 07:51:16;;;;;;;3.80;3.22;;;;;;;21.59;57.10;99600.55;1712343;82;21037;-34
2021/08/31 07:53:43;;;;;;;4.25;3.42;;;;;;;21.69;56.10;99608.41;1690472;82;20984;-34
2021/08/31 07:56:10;;;;;;;5.87;2.80;;;;;;;21.73;56.59;99601.09;1699773;82;21445;-34
2021/08/31 07:58:37;;;;;;;2.52;2.33;;;;;;;21.80;54.73;99601.11;1728645;81;21005;-35
2021/08/31 08:01:05;;;;;;;3.85;3.15;;;;;;;21.80;53.33;99599.78;1715268;82;21020;-34
2021/08/31 08:03:33;;;;;;;2.80;2.52;;;;;;;21.79;53.63;99602.92;1698250;81;21056;-42
2021/08/31 08:05:59;;;;;;;2.95;2.67;;;;;;;21.79;54.63;99601.59;1722614;81;21037;-35
2021/08/31 08:08:26;;;;;;;2.70;2.05;;;;;;;21.85;53.36;99608.84;1725413;80;21920;-35
2021/08/31 08:10:55;;;;;;;3.52;2.67;;;;;;;21.89;53.90;99595.75;1763778;79;21533;-42
2021/08/31 08:13:21;;;;;;;2.98;2.77;;;;;;;21.89;53.36;99595.75;1722709;81;21004;-42
2021/08/31 08:15:48;;;;;;;3.83;2.90;;;;;;;21.90;52.77;99599.65;1701835;82;21050;-38
2021/08/31 08:18:15;;;;;;;3.12;2.83;;;;;;;21.94;53.81;99595.02;1722755;81;21043;-34
2021/08/31 08:20:43;;;;;;;5.42;2.80;;;;;;;22.02;54.20;99606.06;1720046;81;21017;-35
2021/08/31 08:23:12;;;;;;;3.30;3.00;;;;;;;22.09;53.47;99603.45;1690551;82;21077;-42
2021/08/31 08:25:39;;;;;;;5.30;2.90;;;;;;;22.13;53.50;99604.16;1731208;80;21009;-43
2021/08/31 08:28:06;;;;;;;3.42;2.50;;;;;;;22.15;53.94;99608.91;1721898;81;21067;-43
2021/08/31 08:30:33;;;;;;;5.20;2.40;;;;;;;22.23;53.05;99610.66;1772589;79;20997;-35
2021/08/31 08:32:59;;;;;;;4.08;3.15;;;;;;;22.30;52.89;99602.69;1761751;79;21547;-42
2021/08/31 08:35:26;;;;;;;3.20;2.90;;;;;;;22.35;52.45;99609.08;1730417;80;21061;-35
2021/08/31 08:37:53;;;;;;;4.22;2.67;;;;;;;22.36;52.82;99603.66;1702044;82;21029;-42
2021/08/31 08:40:20;;;;;;;8.23;2.72;;;;;;;22.39;53.60;99626.61;1709258;82;21536;-42
2021/08/31 08:42:47;;;;;;;3.00;2.40;;;;;;;22.42;49.71;99618.42;1760376;79;21042;-36
2021/08/31 08:45:14;;;;;;;5.12;2.62;;;;;;;22.43;50.08;99608.14;1768857;79;20998;-35
2021/08/31 08:47:41;;;;;;;4.58;2.83;;;;;;;22.44;49.85;99616.51;1752024;79;21029;-36
2021/08/31 08:50:09;;;;;;;2.83;2.62;;;;;;;22.46;50.69;99615.97;1702997;80;20986;-43
2021/08/31 08:52:35;;;;;;;2.60;2.40;;;;;;;22.48;51.13;99614.91;1775414;78;21714;-43
2021/08/31 08:55:08;;;;;;;4.62;3.05;;;;;;;22.52;50.87;99612.45;1760672;79;21433;-43
2021/08/31 08:57:35;;;;;;;29.55;8.70;;;;;;;22.62;50.78;99614.10;1720081;81;21904;-40
2021/08/31 09:00:04;;;;;;;7.08;3.58;;;;;;;22.77;52.41;99619.82;1703260;82;21466;-34
2021/08/31 09:02:37;;;;;;;14.07;5.15;;;;;;;22.90;50.82;99613.28;1748512;79;21099;-34
2021/08/31 09:05:12;;;;;;;3.75;3.37;;;;;;;23.03;51.96;99620.94;1767504;79;21476;-41
2021/08/31 09:07:40;;;;;;;3.55;3.25;;;;;;;23.15;50.31;99617.98;1737215;81;21100;-33
2021/08/31 09:10:23;;;;;;;2.92;2.67;;;;;;;23.23;49.70;99615.67;1692410;83;20998;-33
2021/08/31 09:12:52;;;;;;;2.60;2.40;;;;;;;23.26;49.39;99615.50;1708622;82;21094;-34
2021/08/31 09:15:30;;;;;;;9.28;5.22;;;;;;;23.27;48.97;99621.21;1706655;83;21051;-39
2021/08/31 09:18:12;;;;;;;2.25;2.05;;;;;;;23.28;48.94;99622.92;1714130;82;21040;-40
2021/08/31 09:20:55;;;;;;;2.70;2.50;;;;;;;23.26;46.70;99619.98;1715088;82;21031;-39
2021/08/31 09:23:27;;;;;;;;;;;;;;;23.25;48.66;99616.91;1717099;81;21087;-40
2021/08/31 09:25:56;;;;;;;5.50;2.50;;;;;;;23.29;48.13;99625.96;1766724;78;20195;-34
2021/08/31 09:28:27;;;;;;;2.37;2.17;;;;;;;23.32;48.21;99615.59;1762013;79;21104;-33
2021/08/31 09:31:04;;;;;;;6.17;2.70;;;;;;;23.36;48.61;99617.94;1756769;80;21024;-33
2021/08/31 09:33:35;;;;;;;1.98;1.87;;;;;;;23.42;48.20;99624.70;1726993;81;21041;-38
2021/08/31 09:36:24;;;;;;;2.25;2.00;;;;;;;23.48;48.25;99619.45;1770179;79;21604;-40
2021/08/31 09:39:00;;;;;;;3.90;2.50;;;;;;;23.50;48.42;99621.09;1717265;82;21346;-34
2021/08/31 09:41:42;;;;;;;2.27;2.00;;;;;;;23.50;48.26;99621.56;1769591;79;20997;-35
2021/08/31 09:44:23;;;;;;;2.20;2.08;;;;;;;23.54;48.85;99623.06;1722642;81;21024;-33
2021/08/31 09:47:00;;;;;;;3.27;1.90;;;;;;;23.58;46.51;99634.79;1694847;82;21557;-39
2021/08/31 09:49:37;;;;;;;3.15;2.30;;;;;;;23.61;47.90;99635.09;1770345;79;21012;-34
2021/08/31 09:52:11;;;;;;;2.30;2.10;;;;;;;23.61;47.95;99621.26;1758508;79;21075;-33
2021/08/31 09:54:48;;;;;;;2.85;2.55;;;;;;;23.67;48.73;99620.03;1755161;80;21416;-39
2021/08/31 09:57:36;;;;;;;3.22;2.58;;;;;;;23.74;47.93;99629.84;1784038;79;21012;-40
2021/08/31 10:00:08;;;;;;;3.77;2.22;;;;;;;23.73;47.92;99618.78;1756202;80;21540;-39
2021/08/31 10:02:35;;;;;;;3.95;2.33;;;;;;;23.71;48.34;99634.88;1714448;81;21584;-39
2021/08/31 10:05:04;;;;;;;2.77;2.22;;;;;;;23.68;47.74;99620.41;1767727;79;21041;-39
2021/08/31 10:07:31;;;;;;;2.22;1.87;;;;;;;23.67;46.76;99621.86;1736286;79;21102;-39
2021/08/31 10:09:59;;;;;;;2.20;2.00;;;;;;;23.68;47.14;99621.75;1699290;82;21018;-39
2021/08/31 10:12:26;;;;;;;2.42;2.12;;;;;;;23.68;47.49;99628.42;1713207;81;21130;-39
2021/08/31 10:14:54;;;;;;;2.35;2.15;;;;;;;23.71;47.89;99626.02;1712770;81;20976;-40
2021/08/31 10:24:58;;;;;;;2.10;2.00;;;;;;;24.04;48.56;99626.97;1782926;75;20133;-36
2021/08/31 10:27:34;;;;;;;2.58;2.30;;;;;;;24.35;47.23;99630.70;1761920;78;21049;-34
2021/08/31 10:45:29;;;;;;;7.90;2.10;;;;;;;26.20;41.04;99622.86;1766736;81;21496;-34
2021/08/31 10:47:56;;;;;;;2.37;1.60;;;;;;;26.55;41.48;99621.19;1640246;84;21128;-40
2021/08/31 10:50:30;;;;;;;2.08;1.90;;;;;;;27.07;40.85;99619.84;1631158;86;21042;-40
2021/08/31 10:53:04;;;;;;;2.20;1.70;;;;;;;27.37;38.89;99626.82;1634585;86;21061;-39
2021/08/31 10:55:36;;;;;;;3.17;1.80;;;;;;;27.59;39.97;99625.42;1649043;85;21076;-33
2021/08/31 10:58:07;;;;;;;1.90;1.70;;;;;;;27.96;39.26;99639.09;1655822;85;21114;-40
2021/08/31 11:00:45;;;;;;;1.07;1.07;;;;;;;28.31;37.33;99628.93;1633874;85;21134;-40
2021/08/31 11:03:11;;;;;;;5.03;1.70;;;;;;;28.68;36.77;99631.20;1649299;84;21049;-40
2021/08/31 11:05:38;;;;;;;6.47;1.40;;;;;;;28.77;36.20;99627.74;1625347;85;21556;-34
2021/08/31 11:08:12;;;;;;;4.72;2.30;;;;;;;28.76;36.56;99626.50;1643769;86;21044;-40
2021/08/31 11:10:45;;;;;;;4.17;1.30;;;;;;;28.65;36.65;99640.91;1645380;86;21073;-34
2021/08/31 11:13:17;;;;;;;1.45;1.37;;;;;;;28.39;36.57;99633.69;1641277;87;21570;-40
2021/08/31 11:15:47;;;;;;;3.27;1.27;;;;;;;27.95;36.97;99631.98;1637947;87;21109;-40
2021/08/31 11:18:15;;;;;;;1.60;1.50;;;;;;;27.47;36.90;99623.73;1654508;86;21664;-34
2021/08/31 11:20:45;;;;;;;2.08;1.35;;;;;;;27.08;38.42;99633.17;1639779;86;21131;-34
2021/08/31 11:23:19;;;;;;;4.00;1.50;;;;;;;26.79;38.79;99629.55;1643355;86;21569;-39
2021/08/31 11:25:58;;;;;;;1.47;1.10;;;;;;;26.55;39.64;99630.08;1684975;82;21624;-40
2021/08/31 11:28:27;;;;;;;1.67;1.52;;;;;;;26.30;39.17;99628.39;1718870;83;21044;-40
2021/08/31 11:31:06;;;;;;;1.47;1.20;;;;;;;26.09;40.80;99621.50;1761288;79;21073;-33
2021/08/31 11:33:36;;;;;;;3.58;1.25;;;;;;;26.00;40.24;99623.02;1746234;80;21028;-34
2021/08/31 11:36:07;;;;;;;1.20;1.20;;;;;;;25.92;38.94;99629.45;1721594;80;21102;-40
2021/08/31 11:38:47;;;;;;;1.70;1.60;;;;;;;25.76;38.65;99632.03;1736188;82;21078;-34
2021/08/31 11:41:31;;;;;;;1.65;1.50;;;;;;;25.59;40.82;99627.86;1757256;81;21041;-40
2021/08/31 11:44:06;;;;;;;2.12;1.57;;;;;;;25.42;41.92;99623.73;1719971;83;21029;-40
2021/08/31 11:46:37;;;;;;;2.65;1.30;;;;;;;25.32;40.45;99626.20;1761680;80;21524;-39
2021/08/31 11:49:17;;;;;;;1.62;1.52;;;;;;;25.25;41.89;99630.77;1769292;79;21032;-34
2021/08/31 11:52:00;;;;;;;1.57;1.20;;;;;;;25.10;42.00;99621.98;1762362;79;21017;-34
2021/08/31 11:54:31;;;;;;;2.37;1.40;;;;;;;24.96;42.77;99629.63;1752767;79;21607;-33
2021/08/31 11:57:01;;;;;;;2.00;1.50;;;;;;;24.87;43.08;99628.92;1763736;79;21005;-40
2021/08/31 11:59:48;;;;;;;2.02;1.70;;;;;;;24.84;42.90;99621.13;1756069;79;21415;-34
2021/08/31 12:02:26;;;;;;;1.30;1.20;;;;;;;24.87;43.46;99622.23;1726532;82;21048;-34
2021/08/31 12:05:00;;;;;;;1.35;1.25;;;;;;;24.95;42.48;99635.95;1732640;82;21019;-40
2021/08/31 12:07:32;;;;;;;4.72;1.40;;;;;;;25.07;41.98;99631.59;1717995;81;21114;-33
2021/08/31 12:10:04;;;;;;;2.02;1.35;;;;;;;25.13;43.00;99629.33;1735443;82;21042;-34
2021/08/31 12:12:32;;;;;;;1.87;1.37;;;;;;;25.15;42.07;99626.05;1729131;81;21066;-38
2021/08/31 12:14:59;;;;;;;3.27;1.30;;;;;;;25.10;42.75;99623.33;1713472;83;21012;-38
2021/08/31 12:17:35;;;;;;;1.50;1.40;;;;;;;25.10;43.58;99624.18;1724368;81;21050;-37
2021/08/31 12:20:07;;;;;;;1.40;1.30;;;;;;;25.15;41.89;99622.04;1728382;82;21534;-32
2021/08/31 12:22:37;;;;;;;;;;;;;;;25.15;41.90;99622.52;1729798;81;21053;-38
2021/08/31 12:25:05;;;;;;;1.55;1.45;;;;;;;24.98;42.18;99617.47;1734031;82;20140;-38
2021/08/31 12:27:50;;;;;;;2.35;1.32;;;;;;;24.84;42.27;99630.00;1730278;82;21100;-33
2021/08/31 12:30:21;;;;;;;4.05;1.57;;;;;;;24.85;42.57;99618.81;1735375;82;21522;-39
2021/08/31 12:32:55;;;;;;;1.67;1.57;;;;;;;24.87;43.40;99616.88;1721533;81;21032;-32
2021/08/31 12:35:36;;;;;;;1.70;1.60;;;;;;;24.91;42.63;99617.91;1717299;82;20975;-39
2021/08/31 12:38:18;;;;;;;2.08;1.90;;;;;;;24.89;42.64;99621.18;1729464;81;21078;-33
2021/08/31 12:41:13;;;;;;;2.60;1.72;;;;;;;24.93;43.68;99616.00;1727794;81;21000;-33
2021/08/31 12:43:52;;;;;;;4.00;1.35;;;;;;;25.01;42.77;99627.98;1697071;81;21092;-32
2021/08/31 12:46:29;;;;;;;4.65;1.40;;;;;;;24.90;42.85;99620.70;1720582;82;21549;-32
2021/08/31 12:49:11;;;;;;;4.67;1.52;;;;;;;24.80;43.00;99621.80;1739309;80;20989;-39
2021/08/31 12:51:44;;;;;;;3.75;1.52;;;;;;;24.74;42.47;99616.03;1721577;81;21149;-38
2021/08/31 12:54:30;;;;;;;2.22;1.60;;;;;;;24.86;43.17;99619.19;1723313;83;21007;-39
2021/08/31 12:57:07;;;;;;;3.40;1.37;;;;;;;25.02;42.46;99613.14;1778845;79;21632;-32
2021/08/31 12:59:39;;;;;;;1.82;1.30;;;;;;;25.06;41.39;99613.34;1765648;79;21040;-39
2021/08/31 13:02:08;;;;;;;1.35;1.25;;;;;;;25.14;40.55;99610.11;1758357;80;21474;-40
2021/08/31 13:04:37;;;;;;;1.35;1.07;;;;;;;25.24;41.15;99615.68;1759019;79;21036;-39
2021/08/31 13:07:09;;;;;;;1.40;1.30;;;;;;;25.30;40.13;99613.91;1772395;80;21615;-40
2021/08/31 13:09:38;;;;;;;1.47;1.20;;;;;;;25.36;41.18;99608.95;1771683;79;21476;-39
2021/08/31 13:12:06;;;;;;;2.25;1.37;;;;;;;25.51;41.06;99606.97;1770758;79;21001;-33
2021/08/31 13:14:34;;;;;;;1.37;1.27;;;;;;;25.71;40.14;99611.75;1756665;79;20977;-34
2021/08/31 13:17:01;;;;;;;3.02;1.50;;;;;;;25.93;39.85;99615.08;1744235;79;21061;-33
2021/08/31 13:19:28;;;;;;;3.77;1.15;;;;;;;26.18;39.62;99613.23;1763535;79;21009;-40
2021/08/31 13:21:56;;;;;;;1.10;0.95;;;;;;;26.23;39.02;99618.63;1767297;78;21067;-40
2021/08/31 13:24:23;;;;;;;1.12;1.07;;;;;;;26.02;38.52;99615.34;1732075;80;21079;-40
2021/08/31 13:26:50;;;;;;;1.57;1.17;;;;;;;25.84;39.09;99611.73;1738374;81;21056;-33
2021/08/31 13:29:17;;;;;;;1.72;1.27;;;;;;;25.87;39.21;99613.34;1729536;80;21033;-40
2021/08/31 13:31:44;;;;;;;2.27;1.52;;;;;;;25.90;38.63;99629.17;1720741;82;21074;-40
2021/08/31 13:34:11;;;;;;;2.15;1.20;;;;;;;25.86;38.65;99623.66;1719325;81;21043;-34
2021/08/31 13:36:39;;;;;;;1.40;1.30;;;;;;;25.80;38.56;99618.27;1732666;82;21128;-40
2021/08/31 13:39:07;;;;;;;1.75;1.07;;;;;;;25.62;38.62;99618.25;1731855;80;20996;-40
2021/08/31 13:41:35;;;;;;;1.20;1.10;;;;;;;25.35;39.67;99619.78;1700077;82;21085;-33
2021/08/31 13:44:02;;;;;;;1.40;1.30;;;;;;;25.12;40.08;99617.41;1721059;81;21045;-39
2021/08/31 13:46:31;;;;;;;1.20;1.10;;;;;;;24.99;40.65;99624.53;1761732;78;21012;-33
2021/08/31 13:48:59;;;;;;;3.00;0.93;;;;;;;24.91;40.76;99618.39;1746439;79;21024;-32
2021/08/31 13:51:25;;;;;;;4.08;1.47;;;;;;;24.94;41.48;99620.37;1751374;79;21661;-40
2021/08/31 13:53:53;;;;;;;1.40;1.12;;;;;;;24.99;40.31;99616.50;1747451;78;21020;-34
2021/08/31 13:56:20;;;;;;;4.47;1.30;;;;;;;25.08;40.73;99622.11;1745868;79;21634;-34
2021/08/31 13:58:47;;;;;;;1.40;1.22;;;;;;;25.21;40.72;99620.27;1753910;79;21555;-40
2021/08/31 14:01:14;;;;;;;2.08;1.30;;;;;;;25.33;39.93;99621.20;1735118;80;21537;-40
2021/08/31 14:03:43;;;;;;;1.40;1.30;;;;;;;25.34;39.32;99620.72;1725240;81;21077;-38
2021/08/31 14:06:10;;;;;;;1.12;1.05;;;;;;;25.35;39.65;99617.11;1744146;80;21476;-39
2021/08/31 14:08:37;;;;;;;1.50;1.15;;;;;;;25.36;39.49;99618.33;1698636;83;22180;-39
2021/08/31 14:11:04;;;;;;;1.22;1.00;;;;;;;25.39;40.11;99610.06;1740057;82;21032;-33
2021/08/31 14:13:30;;;;;;;1.45;1.10;;;;;;;25.50;40.81;99602.59;1735097;80;21031;-39
2021/08/31 14:15:57;;;;;;;1.02;0.80;;;;;;;25.54;38.70;99602.75;1713880;82;21067;-39
2021/08/31 14:18:25;;;;;;;1.15;0.93;;;;;;;25.62;39.39;99604.86;1736055;80;21088;-33
2021/08/31 14:20:54;;;;;;;1.20;1.10;;;;;;;25.89;38.62;99604.69;1732816;82;20969;-33
2021/08/31 14:23:20;;;;;;;1.57;1.47;;;;;;;26.46;38.16;99604.84;1692394;81;21058;-33
2021/08/31 14:25:48;;;;;;;1.40;1.30;;;;;;;27.14;36.28;99596.44;1732230;80;21117;-39
2021/08/31 14:28:16;;;;;;;1.40;1.30;;;;;;;27.41;34.88;99597.37;1710895;82;21053;-39
2021/08/31 14:30:44;;;;;;;1.35;1.25;;;;;;;27.31;35.80;99599.13;1687844;84;21001;-39
2021/08/31 14:33:11;;;;;;;1.25;1.12;;;;;;;27.15;36.10;99605.34;1700853;82;21110;-39
2021/08/31 14:35:38;;;;;;;1.12;1.02;;;;;;;27.03;36.48;99608.48;1705958;83;21020;-33
2021/08/31 14:38:06;;;;;;;4.75;1.00;;;;;;;27.13;36.38;99610.81;1727046;81;21687;-33
2021/08/31 14:40:32;;;;;;;1.32;1.00;;;;;;;27.28;36.88;99602.03;1703076;83;21048;-33
2021/08/31 14:42:59;;;;;;;1.10;1.00;;;;;;;27.30;35.74;99602.27;1755188;79;21568;-33
2021/08/31 14:45:26;;;;;;;1.45;1.35;;;;;;;26.95;36.45;99601.02;1790957;78;21488;-34
2021/08/31 14:47:52;;;;;;;3.58;1.10;;;;;;;26.47;37.54;99601.67;1796333;77;21045;-33
2021/08/31 14:50:19;;;;;;;1.30;1.17;;;;;;;26.03;38.47;99600.48;1732057;81;21512;-39
2021/08/31 14:52:46;;;;;;;4.20;1.50;;;;;;;25.68;39.58;99597.23;1744482;79;21079;-39
2021/08/31 14:55:13;;;;;;;1.95;1.20;;;;;;;25.35;40.32;99597.88;1760108;79;21005;-33
2021/08/31 14:57:40;;;;;;;1.10;1.10;;;;;;;25.19;40.36;99599.94;1758927;79;21076;-39
2021/08/31 15:00:09;;;;;;;1.35;1.25;;;;;;;25.28;40.27;99589.05;1779841;78;21480;-39
2021/08/31 15:02:35;;;;;;;1.40;1.27;;;;;;;25.37;40.34;99595.09;1763698;79;21040;-33
2021/08/31 15:05:02;;;;;;;4.35;1.15;;;;;;;25.22;40.75;99593.02;1763006;81;20965;-39
2021/08/31 15:07:29;;;;;;;4.35;1.35;;;;;;;25.07;41.22;99591.45;1764801;80;21076;-38
2021/08/31 15:09:56;;;;;;;1.40;1.30;;;;;;;24.95;41.89;99593.14;1762635;80;21044;-39
